< < Back
Terminal Aerodrome Forecast


Current Version              Previous Versions:   1  2  3  4  5  6  7  8  9  

Terminal Aerodrome Forecast

655
FTUS42 KGSP 011700
TAFGSP
TAF
KGSP 011725Z 0118/0218 23003KT P6SM SCT050
     FM012000 23003KT P6SM BKN045
     FM020000 00000KT P6SM SCT045=



Latest METAR

721
SAUS70 KWBC 011800 RRX
MTRGSP
METAR KGSP 011753Z 18007KT 10SM FEW075 28/16 A2999 RMK AO2 SLP144
T02780156 10278 20156 58012


USA.gov is the U.S. government's official web portal to all federal, state and local government web resources and services.